Time;durP1;ratioP1;P1;durP2;ratioP2;P2;SDS_P1;SDS_P2;PMS_P1;PMS_P2;Temp;Humidity;BMP_temperature;BMP_pressure;BME280_temperature;BME280_humidity;BME280_pressure;Samples;Min_cycle;Max_cycle;Signal;HPM_P1;HPM_P2
2022/10/07 00:01:07;;;;;;;3.42;2.95;;;;;;;-145.49;100.00;62790.56;4930516;29;20406;-73
2022/10/07 00:03:33;;;;;;;5.45;2.70;;;;;;;-145.49;100.00;62790.56;4921919;29;20047;-74
2022/10/07 00:06:21;;;;;;;5.78;2.60;;;;;;;-145.49;100.00;62790.56;4937811;29;20035;-74
2022/10/07 00:08:52;;;;;;;14.38;4.43;;;;;;;-145.49;100.00;62790.56;4936050;29;20050;-73
2022/10/07 00:11:28;;;;;;;7.55;2.90;;;;;;;-145.49;100.00;62790.56;4921473;29;21252;-75
2022/10/07 00:13:56;;;;;;;12.13;3.15;;;;;;;-145.49;100.00;62790.56;4915110;29;20414;-74
2022/10/07 00:16:32;;;;;;;4.28;2.80;;;;;;;-145.49;100.00;62790.56;4931007;29;20153;-75
2022/10/07 00:19:02;;;;;;;6.50;3.38;;;;;;;-145.49;100.00;62790.56;4931310;28;20402;-75
2022/10/07 00:21:31;;;;;;;3.92;2.47;;;;;;;-145.49;100.00;62790.56;4932089;29;20044;-75
2022/10/07 00:23:57;;;;;;;5.30;2.90;;;;;;;-145.49;100.00;62790.56;4912746;29;20039;-75
2022/10/07 00:26:25;;;;;;;4.75;2.03;;;;;;;-145.49;100.00;62790.56;4934247;29;20383;-74
2022/10/07 00:28:56;;;;;;;4.25;2.65;;;;;;;-145.49;100.00;62790.56;4926903;29;20047;-75
2022/10/07 00:31:33;;;;;;;6.78;4.00;;;;;;;-145.49;100.00;62790.56;4931078;29;20394;-74
2022/10/07 00:34:01;;;;;;;3.08;2.45;;;;;;;-145.49;100.00;62790.56;4916234;29;20051;-75
2022/10/07 00:36:34;;;;;;;3.92;2.72;;;;;;;-145.49;100.00;62790.56;4926240;29;20379;-75
2022/10/07 00:39:09;;;;;;;6.25;3.08;;;;;;;-145.49;100.00;62790.56;4929078;29;20406;-75
2022/10/07 00:41:42;;;;;;;6.00;2.88;;;;;;;-145.49;100.00;62790.56;4886580;29;20050;-74
2022/10/07 00:44:30;;;;;;;6.43;3.25;;;;;;;-145.49;100.00;62790.56;4933021;29;20402;-75
2022/10/07 00:47:04;;;;;;;4.82;2.10;;;;;;;-145.49;100.00;62790.56;4935753;29;20035;-75
2022/10/07 00:49:39;;;;;;;12.57;3.05;;;;;;;-145.49;100.00;62790.56;4917591;29;20047;-75
2022/10/07 00:52:05;;;;;;;5.88;2.50;;;;;;;-145.49;100.00;62790.56;4925747;29;20490;-75
2022/10/07 00:54:32;;;;;;;5.75;2.45;;;;;;;-145.49;100.00;62790.56;4930898;29;20040;-75
2022/10/07 00:57:00;;;;;;;5.55;2.20;;;;;;;-145.49;100.00;62790.56;4929504;29;20141;-74
2022/10/07 00:59:29;;;;;;;6.00;2.08;;;;;;;-145.49;100.00;62790.56;4918199;29;20036;-75
2022/10/07 01:01:55;;;;;;;2.97;2.13;;;;;;;-145.49;100.00;62790.56;4930524;29;20401;-73
2022/10/07 01:04:24;;;;;;;5.93;2.92;;;;;;;-145.49;100.00;62790.56;4915402;29;20490;-73
2022/10/07 01:06:51;;;;;;;9.85;2.35;;;;;;;-145.49;100.00;62790.56;4930212;29;20038;-73
2022/10/07 01:09:19;;;;;;;3.10;1.83;;;;;;;-145.49;100.00;62790.56;4917444;29;20036;-73
2022/10/07 01:11:58;;;;;;;8.18;2.65;;;;;;;-145.49;100.00;62790.56;4920497;29;20039;-74
2022/10/07 01:14:37;;;;;;;4.90;2.10;;;;;;;-145.49;100.00;62790.56;4931955;29;20512;-73
2022/10/07 01:17:07;;;;;;;13.77;2.25;;;;;;;-145.49;100.00;62790.56;4927341;29;20040;-74
2022/10/07 01:20:22;;;;;;;3.45;1.80;;;;;;;-145.49;100.00;62790.56;4939314;29;20050;-74
2022/10/07 01:23:09;;;;;;;2.75;2.42;;;;;;;-145.49;100.00;62790.56;4928740;29;20055;-74
2022/10/07 01:25:57;;;;;;;7.35;2.38;;;;;;;-145.49;100.00;62790.56;4932621;29;20042;-74
2022/10/07 01:28:40;;;;;;;6.22;1.85;;;;;;;-145.49;100.00;62790.56;4912878;29;20405;-73
2022/10/07 01:31:14;;;;;;;5.45;2.40;;;;;;;-145.49;100.00;62790.56;4950660;28;20036;-73
2022/10/07 01:33:48;;;;;;;5.65;2.70;;;;;;;-145.49;100.00;62790.56;4949916;28;20039;-73
2022/10/07 01:36:23;;;;;;;6.10;1.77;;;;;;;-145.49;100.00;62790.56;4932664;29;20510;-74
2022/10/07 01:39:01;;;;;;;6.05;2.47;;;;;;;-145.49;100.00;62790.56;4933241;29;20039;-74
2022/10/07 01:41:29;;;;;;;2.42;1.65;;;;;;;-145.49;100.00;62790.56;4951461;28;20039;-74
2022/10/07 01:43:57;;;;;;;2.60;1.67;;;;;;;-145.49;100.00;62790.56;4931997;29;20097;-73
2022/10/07 01:46:32;;;;;;;8.30;2.83;;;;;;;-145.49;100.00;62790.56;4917118;29;20035;-74
2022/10/07 01:49:08;;;;;;;5.50;2.47;;;;;;;-145.49;100.00;62790.56;4926817;29;20059;-73
2022/10/07 01:51:40;;;;;;;3.65;1.58;;;;;;;-145.49;100.00;62790.56;4933014;29;20044;-73
2022/10/07 01:54:07;;;;;;;2.10;1.65;;;;;;;-145.49;100.00;62790.56;4920693;29;20062;-73
2022/10/07 01:56:57;;;;;;;3.17;2.05;;;;;;;-145.49;100.00;62790.56;4920395;29;20031;-73
2022/10/07 01:59:45;;;;;;;4.63;2.30;;;;;;;-145.49;100.00;62790.56;4931841;29;20046;-74
2022/10/07 02:02:31;;;;;;;4.03;3.13;;;;;;;-145.49;100.00;62790.56;4923602;29;20047;-73
2022/10/07 02:05:16;;;;;;;4.10;2.30;;;;;;;-145.49;100.00;62790.56;4942024;29;20055;-73
2022/10/07 02:08:15;;;;;;;4.88;1.92;;;;;;;-145.49;100.00;62790.56;4919125;29;20044;-73
2022/10/07 02:10:54;;;;;;;5.10;3.45;;;;;;;-145.49;100.00;62790.56;4936366;29;20066;-74
2022/10/07 02:13:54;;;;;;;8.00;2.83;;;;;;;-145.49;100.00;62790.56;4923105;29;20044;-74
2022/10/07 02:16:43;;;;;;;3.40;1.92;;;;;;;-145.49;100.00;62790.56;4912104;29;20052;-74
2022/10/07 02:19:32;;;;;;;4.22;2.45;;;;;;;-145.49;100.00;62790.56;4938779;29;20050;-73
2022/10/07 02:22:01;;;;;;;7.80;2.55;;;;;;;-145.49;100.00;62790.56;4952038;28;20047;-74
2022/10/07 02:24:33;;;;;;;3.92;2.20;;;;;;;-145.49;100.00;62790.56;4932403;29;20478;-73
2022/10/07 02:27:11;;;;;;;3.60;1.58;;;;;;;-145.49;100.00;62790.56;4940699;29;20039;-74
2022/10/07 02:29:41;;;;;;;7.38;3.22;;;;;;;-145.49;100.00;62790.56;4930967;29;20039;-74
2022/10/07 02:32:19;;;;;;;4.00;2.03;;;;;;;-145.49;100.00;62790.56;4940756;29;20042;-74
2022/10/07 02:34:57;;;;;;;7.78;2.17;;;;;;;-145.49;100.00;62790.56;4931064;29;20043;-74
2022/10/07 02:37:34;;;;;;;4.18;2.30;;;;;;;-145.49;100.00;62790.56;4920811;29;20040;-74
2022/10/07 02:40:06;;;;;;;3.92;2.53;;;;;;;-145.49;100.00;62790.56;4949713;28;20036;-74
2022/10/07 02:42:54;;;;;;;3.03;2.33;;;;;;;-145.49;100.00;62790.56;4928737;29;20058;-74
2022/10/07 02:45:45;;;;;;;6.00;2.40;;;;;;;-145.49;100.00;62790.56;4929902;29;20036;-73
2022/10/07 02:48:25;;;;;;;5.25;1.98;;;;;;;-145.49;100.00;62790.56;4932531;29;20047;-73
2022/10/07 02:51:02;;;;;;;4.53;1.90;;;;;;;-145.49;100.00;62790.56;4945899;28;20047;-74
2022/10/07 02:53:31;;;;;;;3.33;1.90;;;;;;;-145.49;100.00;62790.56;4935410;29;20047;-74
2022/10/07 02:56:02;;;;;;;5.13;2.78;;;;;;;-145.49;100.00;62790.56;4956189;28;20486;-74
2022/10/07 02:58:29;;;;;;;10.35;2.92;;;;;;;-145.49;100.00;62790.56;4929606;29;20042;-73
2022/10/07 03:01:01;;;;;;;2.53;1.77;;;;;;;-145.49;100.00;62790.56;4945311;28;20043;-74
2022/10/07 03:03:30;;;;;;;2.83;1.73;;;;;;;-145.49;100.00;62790.56;4953462;28;20404;-74
2022/10/07 03:06:03;;;;;;;3.08;2.03;;;;;;;-145.49;100.00;62790.56;4939508;29;20501;-74
2022/10/07 03:08:33;;;;;;;2.20;1.77;;;;;;;-145.49;100.00;62790.56;4931505;29;20070;-74
2022/10/07 03:11:02;;;;;;;4.72;2.10;;;;;;;-145.49;100.00;62790.56;4928630;29;20441;-74
2022/10/07 03:13:30;;;;;;;3.65;1.42;;;;;;;-145.49;100.00;62790.56;4943135;28;20043;-74
2022/10/07 03:16:02;;;;;;;8.13;2.33;;;;;;;-145.49;100.00;62790.56;4950780;28;20031;-74
2022/10/07 03:18:28;;;;;;;2.60;1.95;;;;;;;-145.49;100.00;62790.56;4914980;29;20043;-73
2022/10/07 03:21:04;;;;;;;4.88;2.25;;;;;;;-145.49;100.00;62790.56;4932841;29;20398;-74
2022/10/07 03:23:30;;;;;;;4.97;2.15;;;;;;;-145.49;100.00;62790.56;4930611;29;20421;-73
2022/10/07 03:25:59;;;;;;;5.95;1.70;;;;;;;-145.49;100.00;62790.56;4925993;29;20486;-73
2022/10/07 03:28:27;;;;;;;3.63;2.70;;;;;;;-145.49;100.00;62790.56;4935071;29;20509;-74
2022/10/07 03:31:11;;;;;;;3.17;2.13;;;;;;;-145.49;100.00;62790.56;4932033;29;20039;-74
2022/10/07 03:33:46;;;;;;;5.95;2.95;;;;;;;-145.49;100.00;62790.56;4916813;29;20155;-74
2022/10/07 03:36:12;;;;;;;3.33;2.15;;;;;;;-145.49;100.00;62790.56;4915692;29;20032;-74
2022/10/07 03:38:41;;;;;;;7.15;3.15;;;;;;;-145.49;100.00;62790.56;4918635;29;20036;-74
2022/10/07 03:41:09;;;;;;;10.43;3.33;;;;;;;-145.49;100.00;62790.56;4915121;29;20447;-74
2022/10/07 03:43:36;;;;;;;16.80;2.10;;;;;;;-145.49;100.00;62790.56;4938471;29;20046;-74
2022/10/07 03:46:07;;;;;;;3.05;2.20;;;;;;;-145.49;100.00;62790.56;4914648;29;20047;-74
2022/10/07 03:48:36;;;;;;;4.10;2.20;;;;;;;-145.49;100.00;62790.56;4948286;28;20035;-74
2022/10/07 03:51:02;;;;;;;7.57;2.08;;;;;;;-145.49;100.00;62790.56;4931408;29;20043;-73
2022/10/07 03:53:30;;;;;;;2.10;1.77;;;;;;;-145.49;100.00;62790.56;4940198;28;20065;-74
2022/10/07 03:55:59;;;;;;;4.07;2.83;;;;;;;-145.49;100.00;62790.56;4931636;29;20036;-73
2022/10/07 03:58:25;;;;;;;6.47;2.92;;;;;;;-145.49;100.00;62790.56;4932805;29;20036;-74
2022/10/07 04:01:04;;;;;;;4.47;1.63;;;;;;;-145.49;100.00;62790.56;4917516;29;20044;-74
2022/10/07 04:03:31;;;;;;;5.30;1.27;;;;;;;-145.49;100.00;62790.56;4936717;29;20414;-74
2022/10/07 04:06:02;;;;;;;10.48;2.42;;;;;;;-145.49;100.00;62790.56;4930211;29;20047;-74
2022/10/07 04:08:33;;;;;;;3.20;2.28;;;;;;;-145.49;100.00;62790.56;4949303;29;20051;-74
2022/10/07 04:11:05;;;;;;;2.75;1.67;;;;;;;-145.49;100.00;62790.56;4943322;29;20050;-74
2022/10/07 04:13:32;;;;;;;4.20;1.63;;;;;;;-145.49;100.00;62790.56;4935679;29;20047;-74
2022/10/07 04:16:06;;;;;;;2.58;1.98;;;;;;;-145.49;100.00;62790.56;4926759;29;20042;-74
2022/10/07 04:18:35;;;;;;;3.20;2.10;;;;;;;-145.49;100.00;62790.56;4950034;28;20466;-74
2022/10/07 04:21:02;;;;;;;2.90;2.15;;;;;;;-145.49;100.00;62790.56;4916829;29;20040;-73
2022/10/07 04:23:33;;;;;;;4.18;1.98;;;;;;;-145.49;100.00;62790.56;4930282;29;20046;-74
2022/10/07 04:26:00;;;;;;;5.47;1.73;;;;;;;-145.49;100.00;62790.56;4932457;29;20043;-74
2022/10/07 04:28:26;;;;;;;3.90;2.10;;;;;;;-145.49;100.00;62790.56;4932053;29;20047;-74
2022/10/07 04:31:10;;;;;;;5.30;2.47;;;;;;;-145.49;100.00;62790.56;4925770;29;20112;-74
2022/10/07 04:33:48;;;;;;;3.15;1.88;;;;;;;-145.49;100.00;62790.56;4934074;29;20046;-74
2022/10/07 04:36:20;;;;;;;2.72;1.60;;;;;;;-145.49;100.00;62790.56;4930949;29;20394;-73
2022/10/07 04:38:51;;;;;;;3.53;2.13;;;;;;;-145.49;100.00;62790.56;4931253;29;20520;-74
2022/10/07 04:41:25;;;;;;;3.53;2.03;;;;;;;-145.49;100.00;62790.56;4933569;29;20062;-74
2022/10/07 04:43:51;;;;;;;4.40;1.40;;;;;;;-145.49;100.00;62790.56;4935340;29;20040;-74
2022/10/07 04:46:21;;;;;;;4.90;2.13;;;;;;;-145.49;100.00;62790.56;4946358;28;20043;-72
2022/10/07 04:48:52;;;;;;;5.15;2.10;;;;;;;-145.49;100.00;62790.56;4984938;28;20027;-74
2022/10/07 04:51:26;;;;;;;1.63;1.33;;;;;;;-145.49;100.00;62790.56;4953450;28;20386;-73
2022/10/07 04:54:00;;;;;;;4.30;2.42;;;;;;;-145.49;100.00;62790.56;4934031;29;20031;-73
2022/10/07 04:56:53;;;;;;;10.60;1.95;;;;;;;-145.49;100.00;62790.56;4922156;29;20051;-74
2022/10/07 04:59:22;;;;;;;12.88;2.83;;;;;;;-145.49;100.00;62790.56;4931100;29;20039;-74
2022/10/07 05:01:49;;;;;;;5.10;1.13;;;;;;;-145.49;100.00;62790.56;4918402;29;20056;-74
2022/10/07 05:04:15;;;;;;;5.80;2.50;;;;;;;-145.49;100.00;62790.56;4941000;28;20032;-73
2022/10/07 05:06:44;;;;;;;4.25;1.80;;;;;;;-145.49;100.00;62790.56;4936263;29;20047;-74
2022/10/07 05:09:11;;;;;;;3.60;1.80;;;;;;;-145.49;100.00;62790.56;4939875;28;20059;-74
2022/10/07 05:11:41;;;;;;;3.95;2.65;;;;;;;-145.49;100.00;62790.56;4934250;29;20587;-74
2022/10/07 05:14:18;;;;;;;2.88;1.90;;;;;;;-145.49;100.00;62790.56;4949438;28;20059;-74
2022/10/07 05:16:46;;;;;;;5.45;3.15;;;;;;;-145.49;100.00;62790.56;4934300;29;20512;-74
2022/10/07 05:19:16;;;;;;;4.50;1.88;;;;;;;-145.49;100.00;62790.56;4940135;29;20044;-74
2022/10/07 05:21:45;;;;;;;3.20;1.83;;;;;;;-145.49;100.00;62790.56;4904010;29;20044;-74
2022/10/07 05:24:17;;;;;;;9.82;1.90;;;;;;;-145.49;100.00;62790.56;4934568;29;20040;-74
2022/10/07 05:26:51;;;;;;;2.55;2.03;;;;;;;-145.49;100.00;62790.56;4935047;29;20040;-75
2022/10/07 05:29:18;;;;;;;3.90;2.08;;;;;;;-145.49;100.00;62790.56;4935894;29;20051;-74
2022/10/07 05:31:50;;;;;;;6.20;2.83;;;;;;;-145.49;100.00;62790.56;4922807;29;20050;-74
2022/10/07 05:34:19;;;;;;;3.72;1.92;;;;;;;-145.49;100.00;62790.56;4995154;23;20066;-83
2022/10/07 05:36:48;;;;;;;3.55;1.88;;;;;;;-145.49;100.00;62790.56;4940993;28;20034;-83
2022/10/07 05:39:16;;;;;;;7.15;2.75;;;;;;;-145.49;100.00;62790.56;4985321;28;20038;-83
2022/10/07 05:41:54;;;;;;;5.15;1.77;;;;;;;-145.49;100.00;62790.56;4959676;28;20030;-82
2022/10/07 05:44:32;;;;;;;4.40;2.58;;;;;;;-145.49;100.00;62790.56;4969203;28;20062;-82
2022/10/07 05:47:05;;;;;;;9.25;3.15;;;;;;;-145.49;100.00;62790.56;4965329;28;20035;-82
2022/10/07 05:49:32;;;;;;;4.40;2.22;;;;;;;-145.49;100.00;62790.56;4964454;28;20043;-82
2022/10/07 05:52:01;;;;;;;3.40;2.20;;;;;;;-145.49;100.00;62790.56;4955142;28;20039;-81
2022/10/07 05:54:35;;;;;;;3.10;1.73;;;;;;;-145.49;100.00;62790.56;4971331;28;20039;-81
2022/10/07 05:57:05;;;;;;;2.72;1.48;;;;;;;-145.49;100.00;62790.56;4982277;28;20035;-82
2022/10/07 05:59:32;;;;;;;4.07;2.92;;;;;;;-145.49;100.00;62790.56;4970506;28;20047;-82
2022/10/07 06:02:01;;;;;;;4.40;2.13;;;;;;;-145.49;100.00;62790.56;4971820;28;20039;-82
2022/10/07 06:04:30;;;;;;;4.82;2.00;;;;;;;-145.49;100.00;62790.56;4970021;28;20042;-83
2022/10/07 06:07:02;;;;;;;6.03;2.28;;;;;;;-145.49;100.00;62790.56;4961155;28;20031;-82
2022/10/07 06:15:08;;;;;;;2.95;2.00;;;;;;;-145.49;100.00;62790.56;4967819;28;20043;-82
2022/10/07 06:17:44;;;;;;;7.07;3.08;;;;;;;-145.49;100.00;62790.56;4938405;29;20036;-82
2022/10/07 06:20:17;;;;;;;5.07;2.33;;;;;;;-145.49;100.00;62790.56;4932605;29;20054;-81
2022/10/07 06:22:49;;;;;;;3.22;1.90;;;;;;;-145.49;100.00;62790.56;4953937;28;20054;-81
2022/10/07 06:25:17;;;;;;;3.67;2.00;;;;;;;-145.49;100.00;62790.56;4955691;29;20039;-81
2022/10/07 06:27:50;;;;;;;10.88;2.60;;;;;;;-145.49;100.00;62790.56;4970542;28;20405;-83
2022/10/07 06:30:19;;;;;;;3.45;1.95;;;;;;;-145.49;100.00;62790.56;4956965;28;20043;-82
2022/10/07 06:32:45;;;;;;;3.78;2.13;;;;;;;-145.49;100.00;62790.56;4957161;28;20540;-82
2022/10/07 06:35:11;;;;;;;8.23;3.15;;;;;;;-145.49;100.00;62790.56;4970002;28;20039;-82
2022/10/07 06:37:41;;;;;;;2.40;2.10;;;;;;;-145.49;100.00;62790.56;4969624;28;20059;-82
2022/10/07 06:40:15;;;;;;;4.55;1.73;;;;;;;-145.49;100.00;62790.56;4970265;28;20050;-82
2022/10/07 06:42:43;;;;;;;4.30;2.00;;;;;;;-145.49;100.00;62790.56;4971066;28;20039;-82
2022/10/07 06:45:29;;;;;;;5.05;2.55;;;;;;;-145.49;100.00;62790.56;4954494;28;20050;-82
2022/10/07 06:47:58;;;;;;;7.15;2.40;;;;;;;-145.49;100.00;62790.56;4964628;28;20035;-82
2022/10/07 06:50:27;;;;;;;5.03;1.95;;;;;;;-145.49;100.00;62790.56;4948076;28;20040;-82
2022/10/07 06:53:01;;;;;;;3.85;1.65;;;;;;;-145.49;100.00;62790.56;4969589;28;20484;-82
2022/10/07 06:55:36;;;;;;;4.38;2.17;;;;;;;-145.49;100.00;62790.56;4948101;28;20039;-82
2022/10/07 06:58:08;;;;;;;2.42;1.70;;;;;;;-145.49;100.00;62790.56;4936194;29;20050;-83
2022/10/07 07:00:37;;;;;;;4.00;1.83;;;;;;;-145.49;100.00;62790.56;4968037;28;20035;-82
2022/10/07 07:03:09;;;;;;;2.30;1.80;;;;;;;-145.49;100.00;62790.56;4982363;28;20035;-82
2022/10/07 07:05:41;;;;;;;4.38;2.10;;;;;;;-145.49;100.00;62790.56;4981487;28;20406;-83
2022/10/07 07:08:10;;;;;;;5.90;2.15;;;;;;;-145.49;100.00;62790.56;4952493;28;20523;-83
2022/10/07 07:10:37;;;;;;;3.88;1.60;;;;;;;-145.49;100.00;62790.56;4931367;28;20039;-83
2022/10/07 07:13:09;;;;;;;13.25;1.85;;;;;;;-145.49;100.00;62790.56;4969728;28;20039;-83
2022/10/07 07:15:41;;;;;;;5.82;2.15;;;;;;;-145.49;100.00;62790.56;4958607;28;20392;-84
2022/10/07 07:18:09;;;;;;;4.75;1.92;;;;;;;-145.49;100.00;62790.56;4937480;29;20046;-83
2022/10/07 07:20:40;;;;;;;4.93;1.73;;;;;;;-145.49;100.00;62790.56;4967600;28;20240;-82
2022/10/07 07:23:11;;;;;;;3.10;1.73;;;;;;;-145.49;100.00;62790.56;4978400;28;20034;-82
2022/10/07 07:25:45;;;;;;;9.85;2.13;;;;;;;-145.49;100.00;62790.56;4967775;28;20035;-83
2022/10/07 07:28:14;;;;;;;3.67;1.95;;;;;;;-145.49;100.00;62790.56;4956723;28;20397;-83
2022/10/07 07:30:42;;;;;;;3.28;1.60;;;;;;;-145.49;100.00;62790.56;4965589;28;20055;-83
2022/10/07 07:33:14;;;;;;;8.13;1.90;;;;;;;-145.49;100.00;62790.56;4948554;29;20050;-84
2022/10/07 07:35:42;;;;;;;6.18;1.35;;;;;;;-145.49;100.00;62790.56;4967562;28;20063;-84
2022/10/07 07:38:09;;;;;;;2.08;1.50;;;;;;;-145.49;100.00;62790.56;4962921;28;20043;-83
2022/10/07 07:40:38;;;;;;;5.30;1.48;;;;;;;-145.49;100.00;62790.56;4970947;28;20042;-82
2022/10/07 07:43:07;;;;;;;5.88;1.45;;;;;;;-145.49;100.00;62790.56;4938379;28;20042;-83
2022/10/07 07:45:43;;;;;;;2.00;1.45;;;;;;;-145.49;100.00;62790.56;4950404;28;21289;-84
2022/10/07 07:48:12;;;;;;;7.60;2.58;;;;;;;-145.49;100.00;62790.56;4982278;28;20410;-83
2022/10/07 07:50:40;;;;;;;7.30;1.80;;;;;;;-145.49;100.00;62790.56;4962586;28;20042;-83
2022/10/07 07:53:07;;;;;;;2.25;1.30;;;;;;;-145.49;100.00;62790.56;4965978;28;20031;-84
2022/10/07 07:55:36;;;;;;;3.00;1.67;;;;;;;-145.49;100.00;62790.56;4978809;28;20302;-83
2022/10/07 07:58:11;;;;;;;6.00;1.83;;;;;;;-145.49;100.00;62790.56;4980881;28;20032;-84
2022/10/07 08:00:38;;;;;;;3.42;1.25;;;;;;;-145.49;100.00;62790.56;4972888;28;20046;-84
2022/10/07 08:03:09;;;;;;;5.93;2.20;;;;;;;-145.49;100.00;62790.56;4950284;28;20620;-84
2022/10/07 08:05:38;;;;;;;3.47;1.85;;;;;;;-145.49;100.00;62790.56;4962495;28;20078;-84
2022/10/07 08:08:11;;;;;;;2.50;1.02;;;;;;;-145.49;100.00;62790.56;4955020;28;21698;-84
2022/10/07 08:10:39;;;;;;;;;;;;;;;-145.49;100.00;62790.56;4983633;28;20039;-83
2022/10/07 08:13:08;;;;;;;4.90;1.45;;;;;;;-145.49;100.00;62790.56;4969644;28;19914;-84
2022/10/07 08:15:37;;;;;;;2.10;1.63;;;;;;;-145.49;100.00;62790.56;4967012;28;20056;-84
2022/10/07 08:18:04;;;;;;;5.05;1.27;;;;;;;-145.49;100.00;62790.56;4966526;28;20050;-84
2022/10/07 08:20:34;;;;;;;4.35;1.50;;;;;;;-145.49;100.00;62790.56;4948155;28;20490;-82
2022/10/07 08:23:03;;;;;;;6.47;2.35;;;;;;;-145.49;100.00;62790.56;4971156;28;20057;-83
2022/10/07 08:25:31;;;;;;;1.95;1.42;;;;;;;-145.49;100.00;62790.56;4951304;28;20497;-82
2022/10/07 08:28:04;;;;;;;3.97;2.17;;;;;;;-145.49;100.00;62790.56;4985491;28;20488;-82
2022/10/07 08:30:37;;;;;;;;;;;;;;;-145.49;100.00;62790.56;4952200;28;20050;-82
2022/10/07 08:33:06;;;;;;;1.55;1.23;;;;;;;-145.49;100.00;62790.56;4982294;28;19914;-82
2022/10/07 08:35:32;;;;;;;8.35;1.85;;;;;;;-145.49;100.00;62790.56;4952442;28;20043;-82
2022/10/07 08:38:03;;;;;;;4.88;1.70;;;;;;;-145.49;100.00;62790.56;4963425;28;20047;-82
2022/10/07 08:40:31;;;;;;;5.05;1.42;;;;;;;-145.49;100.00;62790.56;4974484;28;20043;-82
2022/10/07 08:43:03;;;;;;;2.70;1.52;;;;;;;-145.49;100.00;62790.56;4951594;28;20035;-82
2022/10/07 08:45:35;;;;;;;2.45;1.42;;;;;;;-145.49;100.00;62790.56;4953470;28;20026;-82
2022/10/07 08:48:10;;;;;;;6.25;1.80;;;;;;;-145.49;100.00;62790.56;4952614;28;20031;-83
2022/10/07 08:50:56;;;;;;;3.10;1.67;;;;;;;-145.49;100.00;62790.56;4982572;28;20055;-83
2022/10/07 08:53:30;;;;;;;2.92;1.63;;;;;;;-145.49;100.00;62790.56;4949961;28;20039;-83
2022/10/07 08:56:16;;;;;;;4.63;1.65;;;;;;;-145.49;100.00;62790.56;4951048;28;20046;-83
2022/10/07 08:59:22;;;;;;;1.58;1.48;;;;;;;-145.49;100.00;62790.56;4956003;28;20042;-83
2022/10/07 09:02:18;;;;;;;6.97;1.60;;;;;;;-145.49;100.00;62790.56;4937098;28;20047;-83
2022/10/07 09:05:07;;;;;;;6.57;2.63;;;;;;;-145.49;100.00;62790.56;4951172;28;20039;-83
2022/10/07 09:07:36;;;;;;;4.55;1.90;;;;;;;-145.49;100.00;62790.56;4951991;28;20047;-84
2022/10/07 09:10:08;;;;;;;5.30;1.70;;;;;;;-145.49;100.00;62790.56;4956057;28;20397;-83
2022/10/07 09:12:34;;;;;;;3.22;1.50;;;;;;;-145.49;100.00;62790.56;4952903;28;20039;-83
2022/10/07 09:15:05;;;;;;;4.15;1.15;;;;;;;-145.49;100.00;62790.56;4951154;28;20038;-84
2022/10/07 09:17:38;;;;;;;8.05;2.97;;;;;;;-145.49;100.00;62790.56;4954350;28;20041;-83
2022/10/07 09:20:18;;;;;;;5.80;3.85;;;;;;;-145.49;100.00;62790.56;4953028;28;20035;-84
2022/10/07 09:22:56;;;;;;;6.40;1.70;;;;;;;-145.49;100.00;62790.56;4948082;28;20397;-84
2022/10/07 09:25:29;;;;;;;5.80;2.92;;;;;;;-145.49;100.00;62790.56;4962282;28;20047;-86
2022/10/07 09:28:02;;;;;;;3.67;2.05;;;;;;;-145.49;100.00;62790.56;4949573;28;20116;-84
2022/10/07 09:30:28;;;;;;;3.38;2.08;;;;;;;-145.49;100.00;62790.56;4977825;28;20039;-85
2022/10/07 09:32:58;;;;;;;3.10;1.90;;;;;;;-145.49;100.00;62790.56;4947680;28;20534;-84
2022/10/07 09:35:30;;;;;;;4.03;1.75;;;;;;;-145.49;100.00;62790.56;4960607;28;20046;-83
2022/10/07 09:38:02;;;;;;;5.00;1.77;;;;;;;-145.49;100.00;62790.56;4982206;28;20035;-84
2022/10/07 09:43:28;;;;;;;5.20;2.33;;;;;;;-145.49;100.00;62790.56;4969006;28;20489;-78
2022/10/07 09:46:00;;;;;;;2.70;2.10;;;;;;;-145.49;100.00;62790.56;4966037;28;20029;-85
2022/10/07 09:48:33;;;;;;;5.50;2.95;;;;;;;-145.49;100.00;62790.56;4957026;29;20039;-83
2022/10/07 09:51:12;;;;;;;6.63;2.55;;;;;;;-145.49;100.00;62790.56;4991847;28;20047;-86
2022/10/07 09:54:01;;;;;;;3.22;2.30;;;;;;;-145.49;100.00;62790.56;4991678;28;20023;-86
2022/10/07 09:56:43;;;;;;;4.38;2.47;;;;;;;-145.49;100.00;62790.56;4975403;28;20065;-84
2022/10/07 09:59:24;;;;;;;3.15;2.00;;;;;;;-145.49;100.00;62790.56;4985401;28;20043;-85
2022/10/07 10:01:56;;;;;;;5.90;2.03;;;;;;;-145.49;100.00;62790.56;4991082;28;20033;-84
2022/10/07 10:04:28;;;;;;;2.30;1.90;;;;;;;-145.49;100.00;62790.56;4979002;28;20054;-84
2022/10/07 10:06:59;;;;;;;15.40;2.87;;;;;;;-145.49;100.00;62790.56;4963382;29;20053;-83
2022/10/07 10:09:33;;;;;;;5.43;2.67;;;;;;;-145.49;100.00;62790.56;4978333;29;20300;-84
2022/10/07 10:12:12;;;;;;;2.60;2.10;;;;;;;-145.49;100.00;62790.56;4991946;28;20019;-85
2022/10/07 10:14:49;;;;;;;11.20;2.92;;;;;;;-145.49;100.00;62790.56;4977128;29;20039;-84
2022/10/07 10:17:38;;;;;;;5.18;2.42;;;;;;;-145.49;100.00;62790.56;4954281;29;20023;-85
2022/10/07 10:20:24;;;;;;;7.00;2.83;;;;;;;-145.49;100.00;62790.56;4983597;28;20042;-84
2022/10/07 10:22:54;;;;;;;5.32;2.70;;;;;;;-145.49;100.00;62790.56;4965874;28;20043;-83
2022/10/07 10:28:41;;;;;;;6.63;2.45;;;;;;;-145.49;100.00;62790.56;4955971;28;20044;-84
2022/10/07 10:31:46;;;;;;;4.53;3.70;;;;;;;-145.49;100.00;62790.56;4970213;28;20035;-84
2022/10/07 10:34:18;;;;;;;6.50;3.38;;;;;;;-145.49;100.00;62790.56;4952152;28;20489;-84
2022/10/07 10:36:53;;;;;;;8.32;3.00;;;;;;;-145.49;100.00;62790.56;4959159;28;20027;-85
2022/10/07 10:40:18;;;;;;;5.10;3.10;;;;;;;-145.49;100.00;62790.56;4981970;28;20032;-84
2022/10/07 10:43:16;;;;;;;4.53;1.88;;;;;;;-145.49;100.00;62790.56;4955647;28;20043;-84
2022/10/07 10:46:22;;;;;;;4.38;2.28;;;;;;;-145.49;100.00;62790.56;4968568;28;20054;-85
2022/10/07 10:49:01;;;;;;;13.20;2.67;;;;;;;-145.49;100.00;62790.56;4970609;28;20035;-85
2022/10/07 10:51:41;;;;;;;5.88;2.20;;;;;;;-145.49;100.00;62790.56;4958004;28;20042;-84
2022/10/07 10:54:37;;;;;;;10.50;3.42;;;;;;;-145.49;100.00;62790.56;4972176;28;20035;-85
2022/10/07 10:57:15;;;;;;;6.40;2.30;;;;;;;-145.49;100.00;62790.56;4955194;29;20031;-85
2022/10/07 11:00:13;;;;;;;5.65;2.60;;;;;;;-145.49;100.00;62790.56;4939266;29;20043;-85
2022/10/07 11:03:22;;;;;;;6.07;3.03;;;;;;;-145.49;100.00;62790.56;4954095;28;20039;-84
2022/10/07 11:06:00;;;;;;;7.13;2.78;;;;;;;-145.49;100.00;62790.56;4968523;28;20047;-85
2022/10/07 11:08:31;;;;;;;5.35;2.65;;;;;;;-145.49;100.00;62790.56;4968216;28;20371;-85
2022/10/07 11:11:00;;;;;;;7.15;4.78;;;;;;;-145.49;100.00;62790.56;4969604;28;20235;-85
2022/10/07 11:13:45;;;;;;;9.00;3.45;;;;;;;-145.49;100.00;62790.56;4972723;28;20038;-84
2022/10/07 11:16:38;;;;;;;4.90;2.75;;;;;;;-145.49;100.00;62790.56;4963581;28;20047;-85
2022/10/07 11:19:23;;;;;;;8.02;3.40;;;;;;;-145.49;100.00;62790.56;4938251;28;20042;-85
2022/10/07 11:21:53;;;;;;;10.50;2.88;;;;;;;-145.49;100.00;62790.56;4952848;29;20062;-84
2022/10/07 11:24:28;;;;;;;8.40;2.70;;;;;;;-145.49;100.00;62790.56;4952382;28;20035;-84
2022/10/07 11:27:02;;;;;;;6.57;2.53;;;;;;;-145.49;100.00;62790.56;4954711;28;20039;-85
2022/10/07 11:29:32;;;;;;;7.05;3.03;;;;;;;-145.49;100.00;62790.56;4961261;28;20382;-85
2022/10/07 11:32:31;;;;;;;2.88;2.50;;;;;;;-145.49;100.00;62790.56;4940834;29;20066;-85
2022/10/07 11:35:25;;;;;;;7.55;3.08;;;;;;;-145.49;100.00;62790.56;4967151;23;20039;-75
2022/10/07 11:38:01;;;;;;;15.80;3.60;;;;;;;-145.49;100.00;62790.56;4952095;28;20042;-75
2022/10/07 11:40:35;;;;;;;9.98;3.70;;;;;;;-145.49;100.00;62790.56;4958199;28;20050;-75
2022/10/07 11:43:15;;;;;;;5.45;3.03;;;;;;;-145.49;100.00;62790.56;4940824;28;20050;-75
2022/10/07 11:45:48;;;;;;;8.60;4.07;;;;;;;-145.49;100.00;62790.56;4955650;28;20035;-75
2022/10/07 11:48:21;;;;;;;12.57;3.50;;;;;;;-145.49;100.00;62790.56;4942883;28;20498;-76
2022/10/07 11:50:58;;;;;;;12.27;3.67;;;;;;;-145.49;100.00;62790.56;4935092;29;20529;-75
2022/10/07 11:53:27;;;;;;;10.68;3.40;;;;;;;-145.49;100.00;62790.56;4974726;28;20039;-75